createdAt,value
2022-12-26T00:02:00.477Z,101533.00
2022-12-26T00:08:02.902Z,101543.00
2022-12-26T00:14:09.164Z,101546.00
2022-12-26T00:20:11.740Z,101567.00
2022-12-26T00:26:17.901Z,101552.00
2022-12-26T00:32:20.073Z,101547.00
2022-12-26T00:38:22.163Z,101548.00
2022-12-26T00:44:24.526Z,101555.00
2022-12-26T00:50:31.166Z,101548.00
2022-12-26T00:56:36.765Z,101549.00
2022-12-26T01:02:39.073Z,101554.00
2022-12-26T01:08:44.781Z,101553.00
2022-12-26T01:14:47.045Z,101552.00
2022-12-26T01:20:49.695Z,101550.00
2022-12-26T01:26:51.949Z,101546.00
2022-12-26T01:32:54.004Z,101542.00
2022-12-26T01:38:56.409Z,101538.00
2022-12-26T01:45:07.458Z,101542.00
2022-12-26T01:51:09.956Z,101517.00
2022-12-26T01:57:34.052Z,101517.00
2022-12-26T02:03:57.720Z,101523.00
2022-12-26T02:10:00.043Z,101519.00
2022-12-26T02:16:03.880Z,101541.00
2022-12-26T02:22:32.663Z,101548.00
2022-12-26T02:28:51.414Z,101542.00
2022-12-26T02:35:27.464Z,101528.00
2022-12-26T02:42:01.541Z,101530.00
2022-12-26T02:48:12.707Z,101528.00
2022-12-26T02:54:55.129Z,101517.00
2022-12-26T03:01:23.120Z,101524.00
2022-12-26T03:07:48.845Z,101540.00
2022-12-26T03:13:52.094Z,101529.00
2022-12-26T03:20:02.571Z,101538.00
2022-12-26T03:26:28.400Z,101553.00
2022-12-26T03:32:43.048Z,101551.00
2022-12-26T03:39:08.180Z,101552.00
2022-12-26T03:45:39.626Z,101552.00
2022-12-26T03:52:15.952Z,101540.00
2022-12-26T03:59:02.902Z,101549.00
2022-12-26T04:05:28.195Z,101546.00
2022-12-26T04:11:49.567Z,101530.00
2022-12-26T04:18:23.055Z,101542.00
2022-12-26T04:24:48.287Z,101552.00
2022-12-26T04:31:16.657Z,101554.00
2022-12-26T04:37:43.358Z,101558.00
2022-12-26T04:44:25.623Z,101572.00
2022-12-26T04:50:27.941Z,101565.00
2022-12-26T04:56:30.442Z,101584.00
2022-12-26T05:02:51.323Z,101577.00
2022-12-26T05:09:23.416Z,101575.00
2022-12-26T05:15:25.816Z,101566.00
2022-12-26T05:21:47.045Z,101576.00
2022-12-26T05:28:08.177Z,101585.00
2022-12-26T05:34:16.325Z,101574.00
2022-12-26T05:40:18.573Z,101593.00
2022-12-26T05:46:20.862Z,101592.00
2022-12-26T05:52:23.362Z,101596.00
2022-12-26T05:58:25.830Z,101587.00
2022-12-26T06:04:27.906Z,101605.00
2022-12-26T06:10:30.082Z,101606.00
2022-12-26T06:16:32.332Z,101595.00
2022-12-26T06:22:34.924Z,101585.00
2022-12-26T06:28:37.515Z,101593.00
2022-12-26T06:34:39.503Z,101592.00
2022-12-26T06:40:42.214Z,101596.00
2022-12-26T06:46:45.011Z,101602.00
2022-12-26T06:52:47.305Z,101613.00
2022-12-26T06:59:00.934Z,101605.00
2022-12-26T07:05:02.933Z,101614.00
2022-12-26T07:11:05.918Z,101598.00
2022-12-26T07:17:10.454Z,101548.00
2022-12-26T07:23:12.772Z,101486.00
2022-12-26T07:29:16.177Z,101411.00
2022-12-26T07:35:18.398Z,101593.00
2022-12-26T07:41:39.308Z,101595.00
2022-12-26T07:47:41.588Z,101601.00
2022-12-26T07:53:43.727Z,101538.00
2022-12-26T07:59:46.388Z,101567.00
2022-12-26T08:05:49.562Z,101510.00
2022-12-26T08:11:51.961Z,101544.00
2022-12-26T08:17:54.497Z,101639.00
2022-12-26T08:23:56.788Z,101617.00
2022-12-26T08:29:58.988Z,101583.00
2022-12-26T08:36:05.994Z,101524.00
2022-12-26T08:42:08.576Z,101566.00
2022-12-26T08:48:11.050Z,101587.00
2022-12-26T08:54:13.251Z,101615.00
2022-12-26T09:00:17.113Z,101609.00
2022-12-26T09:06:19.416Z,101600.00
2022-12-26T09:12:21.684Z,101599.00
2022-12-26T09:18:24.037Z,101582.00
2022-12-26T09:24:26.309Z,101578.00
2022-12-26T09:30:28.516Z,101566.00
2022-12-26T09:36:33.768Z,101552.00
2022-12-26T09:42:42.430Z,101549.00
2022-12-26T09:48:53.286Z,101534.00
2022-12-26T09:55:00.113Z,101533.00
2022-12-26T10:01:04.742Z,101525.00
2022-12-26T10:07:28.435Z,101520.00
2022-12-26T10:13:44.096Z,101514.00
2022-12-26T10:20:24.259Z,101498.00
2022-12-26T10:26:37.411Z,101492.00
2022-12-26T10:32:52.267Z,101484.00
2022-12-26T10:38:56.875Z,101475.00
2022-12-26T10:45:01.045Z,101470.00
2022-12-26T10:51:03.871Z,101467.00
2022-12-26T10:57:08.995Z,101455.00
2022-12-26T11:03:14.552Z,101436.00
2022-12-26T11:09:40.059Z,101428.00
2022-12-26T11:15:49.236Z,101424.00
2022-12-26T11:21:51.372Z,101415.00
2022-12-26T11:27:56.463Z,101416.00
2022-12-26T11:33:59.802Z,101422.00
2022-12-26T11:40:02.957Z,101405.00
2022-12-26T11:46:05.307Z,101408.00
2022-12-26T11:52:44.995Z,101410.00
2022-12-26T11:58:47.404Z,101419.00
2022-12-26T12:04:52.172Z,101416.00
2022-12-26T12:11:10.532Z,101416.00
2022-12-26T12:17:36.602Z,101418.00
2022-12-26T12:23:53.700Z,101407.00
2022-12-26T12:30:16.020Z,101393.00
2022-12-26T12:36:29.773Z,101410.00
2022-12-26T12:42:50.727Z,101410.00
2022-12-26T12:48:52.927Z,101396.00
2022-12-26T12:55:29.207Z,101388.00
2022-12-26T13:01:39.675Z,101386.00
2022-12-26T13:07:48.515Z,101382.00
2022-12-26T13:14:01.362Z,101385.00
2022-12-26T13:20:16.341Z,101386.00
2022-12-26T13:26:22.782Z,101402.00
2022-12-26T13:32:30.691Z,101395.00
2022-12-26T13:39:00.141Z,101399.00
2022-12-26T13:45:36.169Z,101384.00
2022-12-26T13:51:47.744Z,101391.00
2022-12-26T13:58:14.524Z,101389.00
2022-12-26T14:05:01.663Z,101385.00
2022-12-26T14:11:22.422Z,101376.00
2022-12-26T14:17:48.514Z,101382.00
2022-12-26T14:24:17.028Z,101378.00
2022-12-26T14:30:19.337Z,101378.00
2022-12-26T14:36:53.861Z,101392.00
2022-12-26T14:43:11.847Z,101373.00
2022-12-26T14:49:24.038Z,101373.00
2022-12-26T14:55:50.010Z,101372.00
2022-12-26T15:02:01.273Z,101368.00
2022-12-26T15:08:34.271Z,101359.00
2022-12-26T15:15:07.163Z,101357.00
2022-12-26T15:21:46.733Z,101332.00
2022-12-26T15:27:58.364Z,101349.00
2022-12-26T15:34:06.409Z,101350.00
2022-12-26T15:40:24.538Z,101329.00
2022-12-26T15:46:28.043Z,101306.00
2022-12-26T15:52:44.184Z,101318.00
2022-12-26T15:59:24.013Z,101311.00
2022-12-26T16:05:59.764Z,101302.00
2022-12-26T16:12:02.404Z,101306.00
2022-12-26T16:18:27.528Z,101301.00
2022-12-26T16:24:29.838Z,101304.00
2022-12-26T16:30:36.890Z,101296.00
2022-12-26T16:36:39.979Z,101292.00
2022-12-26T16:42:54.770Z,101301.00
2022-12-26T16:48:59.977Z,101297.00
2022-12-26T16:55:35.636Z,101305.00
2022-12-26T17:01:38.493Z,101300.00
2022-12-26T17:07:45.828Z,101297.00
2022-12-26T17:13:54.108Z,101303.00
2022-12-26T17:19:58.567Z,101311.00
2022-12-26T17:26:28.556Z,101314.00
2022-12-26T17:32:46.372Z,101306.00
2022-12-26T17:38:48.946Z,101311.00
2022-12-26T17:44:51.163Z,101300.00
2022-12-26T17:50:59.418Z,101289.00
2022-12-26T17:57:02.209Z,101290.00
2022-12-26T18:03:04.306Z,101284.00
2022-12-26T18:09:07.117Z,101281.00
2022-12-26T18:15:09.384Z,101278.00
2022-12-26T18:21:13.864Z,101274.00
2022-12-26T18:27:37.827Z,101263.00
2022-12-26T18:33:40.070Z,101260.00
2022-12-26T18:39:42.473Z,101256.00
2022-12-26T18:45:45.195Z,101245.00
2022-12-26T18:51:49.124Z,101243.00
2022-12-26T18:57:52.747Z,101220.00
2022-12-26T19:03:55.795Z,101241.00
2022-12-26T19:09:59.813Z,101240.00
2022-12-26T19:16:02.200Z,101244.00
2022-12-26T19:22:05.434Z,101238.00
2022-12-26T19:28:07.792Z,101235.00
2022-12-26T19:34:10.671Z,101229.00
2022-12-26T19:40:19.726Z,101227.00
2022-12-26T19:46:26.140Z,101226.00
2022-12-26T19:52:29.620Z,101212.00
2022-12-26T19:58:32.532Z,101201.00
2022-12-26T20:04:34.890Z,101209.00
2022-12-26T20:10:37.655Z,101207.00
2022-12-26T20:17:05.129Z,101193.00
2022-12-26T20:23:02.270Z,101199.00
2022-12-26T20:29:05.480Z,101185.00
2022-12-26T20:35:08.256Z,101189.00
2022-12-26T20:41:11.264Z,101189.00
2022-12-26T20:47:13.525Z,101186.00
2022-12-26T20:53:15.926Z,101190.00
2022-12-26T20:59:18.250Z,101195.00
2022-12-26T21:05:20.825Z,101193.00
2022-12-26T21:11:25.853Z,101190.00
2022-12-26T21:17:28.270Z,101188.00
2022-12-26T21:23:30.635Z,101189.00
2022-12-26T21:29:34.733Z,101178.00
2022-12-26T21:35:37.962Z,101172.00
2022-12-26T21:41:41.197Z,101172.00
2022-12-26T21:47:43.541Z,101162.00
2022-12-26T21:53:46.919Z,101155.00
2022-12-26T21:59:59.514Z,101138.00
2022-12-26T22:06:02.327Z,101138.00
2022-12-26T22:12:23.631Z,101123.00
2022-12-26T22:18:26.751Z,101127.00
2022-12-26T22:24:29.028Z,101120.00
2022-12-26T22:30:31.934Z,101109.00
2022-12-26T22:36:35.658Z,101093.00
2022-12-26T22:42:37.644Z,101089.00
2022-12-26T22:48:40.323Z,101080.00
2022-12-26T22:54:43.931Z,101077.00
2022-12-26T23:00:47.134Z,101063.00
2022-12-26T23:06:49.571Z,101062.00
2022-12-26T23:12:52.581Z,101060.00
2022-12-26T23:19:44.578Z,101055.00
2022-12-26T23:25:46.848Z,101040.00
2022-12-26T23:31:48.945Z,101046.00
2022-12-26T23:37:52.088Z,101034.00
2022-12-26T23:43:54.556Z,101045.00
2022-12-26T23:49:56.772Z,101036.00
2022-12-26T23:55:59.326Z,101025.00
